createdAt,value
2023-03-17T00:04:36.674Z,2.70
2023-03-17T00:09:38.932Z,2.80
2023-03-17T00:14:42.424Z,2.80
2023-03-17T00:19:44.782Z,2.80
2023-03-17T00:24:47.438Z,2.90
2023-03-17T00:29:49.937Z,2.80
2023-03-17T00:34:54.669Z,2.80
2023-03-17T00:39:57.141Z,2.80
2023-03-17T00:45:01.413Z,2.80
2023-03-17T00:50:05.026Z,2.80
2023-03-17T00:55:09.089Z,2.70
2023-03-17T01:00:21.758Z,2.70
2023-03-17T01:05:26.636Z,2.50
2023-03-17T01:10:29.921Z,2.60
2023-03-17T01:15:33.594Z,2.40
2023-03-17T01:20:35.964Z,2.50
2023-03-17T01:25:40.798Z,2.50
2023-03-17T01:30:43.772Z,2.50
2023-03-17T01:35:46.841Z,2.30
2023-03-17T01:40:51.955Z,2.30
2023-03-17T01:46:25.349Z,2.40
2023-03-17T01:51:37.790Z,2.40
2023-03-17T01:56:43.333Z,2.50
2023-03-17T02:01:49.527Z,2.60
2023-03-17T02:06:59.284Z,2.70
2023-03-17T02:12:03.778Z,2.60
2023-03-17T02:17:06.474Z,2.60
2023-03-17T02:22:09.208Z,2.60
2023-03-17T02:27:35.487Z,2.50
2023-03-17T02:32:38.666Z,2.50
2023-03-17T02:37:43.604Z,2.50
2023-03-17T02:42:46.699Z,2.40
2023-03-17T02:47:51.574Z,2.30
2023-03-17T02:52:54.041Z,2.40
2023-03-17T02:57:56.726Z,2.40
2023-03-17T03:02:59.059Z,2.50
2023-03-17T03:08:01.395Z,2.60
2023-03-17T03:13:03.689Z,2.50
2023-03-17T03:18:06.418Z,2.60
2023-03-17T03:23:08.712Z,2.50
2023-03-17T03:28:11.400Z,2.40
2023-03-17T03:33:15.334Z,2.30
2023-03-17T03:38:18.192Z,2.10
2023-03-17T03:43:23.910Z,2.00
2023-03-17T03:48:26.823Z,2.00
2023-03-17T03:53:29.648Z,1.90
2023-03-17T03:58:32.207Z,1.80
2023-03-17T04:03:34.572Z,1.80
2023-03-17T04:08:37.592Z,1.90
2023-03-17T04:13:39.882Z,2.00
2023-03-17T04:18:42.291Z,2.00
2023-03-17T04:23:46.017Z,2.00
2023-03-17T04:28:48.877Z,2.00
2023-03-17T04:33:51.204Z,2.10
2023-03-17T04:38:53.584Z,2.10
2023-03-17T04:43:55.860Z,2.00
2023-03-17T04:48:58.262Z,1.90
2023-03-17T04:54:00.984Z,1.80
2023-03-17T04:59:03.756Z,1.80
2023-03-17T05:04:06.824Z,1.80
2023-03-17T05:09:10.227Z,1.80
2023-03-17T05:14:12.503Z,1.80
2023-03-17T05:19:16.365Z,1.90
2023-03-17T05:24:18.806Z,2.00
2023-03-17T05:29:21.646Z,2.10
2023-03-17T05:34:24.092Z,2.10
2023-03-17T05:39:26.399Z,2.10
2023-03-17T05:44:46.693Z,2.30
2023-03-17T06:12:50.108Z,2.70
2023-03-17T07:00:45.730Z,3.30
2023-03-17T07:05:48.990Z,3.60
2023-03-17T07:10:54.419Z,3.70
2023-03-17T07:16:00.337Z,3.90
2023-03-17T07:21:03.032Z,4.00
2023-03-17T07:26:05.517Z,4.20
2023-03-17T07:31:09.487Z,4.30
2023-03-17T07:36:12.068Z,4.40
2023-03-17T07:41:14.456Z,4.60
2023-03-17T07:46:17.513Z,4.80
2023-03-17T07:51:22.338Z,5.00
2023-03-17T07:56:24.691Z,5.20
2023-03-17T08:01:28.364Z,5.50
2023-03-17T08:06:31.230Z,5.60
2023-03-17T08:11:33.593Z,5.80
2023-03-17T08:16:36.091Z,6.00
2023-03-17T08:21:38.430Z,6.20
2023-03-17T08:26:40.760Z,6.30
2023-03-17T08:31:45.890Z,6.40
2023-03-17T08:36:48.827Z,6.50
2023-03-17T08:41:51.146Z,6.60
2023-03-17T08:46:53.519Z,6.70
2023-03-17T08:51:56.007Z,6.90
2023-03-17T08:56:59.081Z,7.20
2023-03-17T09:02:01.418Z,7.40
2023-03-17T09:07:04.574Z,7.70
2023-03-17T09:12:07.688Z,7.50
2023-03-17T09:17:11.205Z,7.50
2023-03-17T09:22:16.261Z,8.00
2023-03-17T09:27:18.774Z,8.00
2023-03-17T09:32:21.212Z,8.20
2023-03-17T09:37:24.004Z,8.40
2023-03-17T09:42:47.597Z,8.60
2023-03-17T09:48:31.457Z,8.70
2023-03-17T09:53:41.509Z,8.70
2023-03-17T09:59:01.213Z,8.80
2023-03-17T10:04:04.175Z,8.40
2023-03-17T10:09:26.553Z,8.10
2023-03-17T10:14:51.372Z,8.40
2023-03-17T10:20:11.560Z,9.00
2023-03-17T10:25:19.135Z,9.40
2023-03-17T10:30:23.723Z,9.70
2023-03-17T10:35:26.507Z,10.00
2023-03-17T10:40:31.652Z,10.30
2023-03-17T10:45:40.912Z,10.10
2023-03-17T10:50:48.596Z,10.30
2023-03-17T10:55:53.194Z,10.70
2023-03-17T11:00:58.409Z,11.10
2023-03-17T11:06:10.190Z,11.10
2023-03-17T11:11:34.798Z,11.20
2023-03-17T11:16:40.743Z,11.60
2023-03-17T11:21:51.798Z,12.10
2023-03-17T11:27:08.639Z,12.40
2023-03-17T11:32:42.032Z,13.00
2023-03-17T11:37:59.766Z,12.40
2023-03-17T11:43:11.129Z,12.00
2023-03-17T11:48:17.616Z,12.10
2023-03-17T11:53:46.654Z,12.30
2023-03-17T11:58:55.325Z,12.90
2023-03-17T12:04:03.180Z,13.10
2023-03-17T12:09:46.353Z,12.70
2023-03-17T12:14:52.397Z,12.70
2023-03-17T12:20:18.327Z,13.10
2023-03-17T12:25:25.712Z,13.40
2023-03-17T12:30:54.665Z,13.70
2023-03-17T12:35:58.950Z,14.20
2023-03-17T12:41:46.892Z,14.50
2023-03-17T12:47:29.319Z,14.90
2023-03-17T12:52:46.359Z,15.20
2023-03-17T12:58:01.980Z,15.30
2023-03-17T13:03:25.708Z,16.10
2023-03-17T13:08:37.473Z,16.50
2023-03-17T13:13:54.987Z,16.00
2023-03-17T13:19:14.388Z,15.90
2023-03-17T13:24:16.766Z,16.60
2023-03-17T13:29:39.863Z,16.50
2023-03-17T13:34:56.151Z,16.40
2023-03-17T13:40:35.750Z,16.70
2023-03-17T13:45:41.626Z,17.10
2023-03-17T13:51:01.471Z,16.90
2023-03-17T13:56:23.077Z,17.40
2023-03-17T14:07:09.336Z,17.70
2023-03-17T14:13:04.664Z,17.60
2023-03-17T14:18:17.229Z,17.50
2023-03-17T14:23:21.138Z,17.70
2023-03-17T14:28:29.338Z,18.10
2023-03-17T14:33:36.704Z,17.30
2023-03-17T14:38:46.147Z,17.10
2023-03-17T14:43:50.281Z,17.10
2023-03-17T14:49:00.776Z,17.30
2023-03-17T14:54:10.223Z,17.20
2023-03-17T14:59:18.748Z,16.90
2023-03-17T15:04:29.727Z,16.40
2023-03-17T15:09:34.716Z,16.30
2023-03-17T15:14:41.261Z,16.20
2023-03-17T15:19:46.713Z,15.80
2023-03-17T15:25:17.916Z,15.60
2023-03-17T15:30:21.094Z,15.40
2023-03-17T15:35:23.768Z,14.90
2023-03-17T15:40:26.133Z,14.30
2023-03-17T15:45:28.491Z,14.00
2023-03-17T15:50:33.467Z,13.60
2023-03-17T15:55:36.159Z,13.30
2023-03-17T16:00:38.741Z,13.00
2023-03-17T16:05:41.177Z,12.70
2023-03-17T16:10:44.870Z,12.70
2023-03-17T16:15:55.637Z,12.30
2023-03-17T16:20:58.510Z,12.00
2023-03-17T16:26:13.610Z,11.70
2023-03-17T16:31:26.437Z,11.60
2023-03-17T16:36:31.655Z,11.30
2023-03-17T16:41:35.134Z,11.10
2023-03-17T16:46:39.385Z,11.00
2023-03-17T16:51:42.610Z,10.80
2023-03-17T16:56:45.217Z,10.70
2023-03-17T17:01:47.897Z,10.60
2023-03-17T17:06:50.468Z,10.40
2023-03-17T17:11:52.808Z,10.20
2023-03-17T17:16:56.587Z,10.00
2023-03-17T17:21:59.063Z,9.90
2023-03-17T17:27:01.339Z,9.80
2023-03-17T17:32:03.845Z,9.70
2023-03-17T17:37:07.698Z,9.60
2023-03-17T17:42:11.903Z,9.40
2023-03-17T17:47:14.888Z,9.30
2023-03-17T17:52:18.655Z,9.20
2023-03-17T17:57:21.044Z,9.10
2023-03-17T18:02:23.563Z,8.90
2023-03-17T18:07:26.079Z,8.80
2023-03-17T18:12:28.376Z,8.80
2023-03-17T18:17:32.542Z,8.70
2023-03-17T18:22:35.043Z,8.60
2023-03-17T18:27:38.403Z,8.60
2023-03-17T18:32:43.010Z,8.50
2023-03-17T18:37:45.591Z,8.40
2023-03-17T18:42:47.926Z,8.40
2023-03-17T18:47:50.375Z,8.30
2023-03-17T18:52:53.029Z,8.20
2023-03-17T18:57:55.488Z,8.20
2023-03-17T19:02:57.874Z,8.10
2023-03-17T19:08:00.331Z,8.10
2023-03-17T19:13:04.404Z,8.00
2023-03-17T19:18:07.781Z,7.90
2023-03-17T19:23:10.110Z,8.00
2023-03-17T19:28:12.528Z,8.10
2023-03-17T19:33:16.027Z,7.90
2023-03-17T19:38:19.128Z,8.00
2023-03-17T19:43:39.130Z,7.90
2023-03-17T19:48:42.241Z,7.70
2023-03-17T19:53:44.835Z,7.60
2023-03-17T19:58:47.270Z,7.60
2023-03-17T20:03:49.854Z,7.50
2023-03-17T20:08:52.713Z,7.30
2023-03-17T20:13:55.011Z,7.40
2023-03-17T20:18:57.380Z,7.30
2023-03-17T20:23:59.875Z,7.20
2023-03-17T20:29:02.619Z,7.00
2023-03-17T20:34:05.145Z,7.00
2023-03-17T20:39:07.947Z,6.90
2023-03-17T20:44:10.277Z,6.90
2023-03-17T20:49:12.675Z,6.80
2023-03-17T20:54:15.006Z,6.80
2023-03-17T20:59:17.945Z,6.70
2023-03-17T21:04:21.302Z,6.70
2023-03-17T21:09:23.598Z,6.70
2023-03-17T21:14:26.074Z,6.60
2023-03-17T21:19:28.385Z,6.60
2023-03-17T21:24:33.535Z,6.50
2023-03-17T21:29:36.202Z,6.50
2023-03-17T21:34:38.713Z,6.50
2023-03-17T21:39:40.987Z,6.40
2023-03-17T21:44:45.715Z,6.40
2023-03-17T21:49:48.017Z,6.30
2023-03-17T21:54:51.217Z,6.30
2023-03-17T21:59:54.063Z,6.20
2023-03-17T22:04:56.869Z,6.20
2023-03-17T22:10:00.892Z,6.20
2023-03-17T22:15:04.373Z,6.10
2023-03-17T22:20:07.961Z,6.10
2023-03-17T22:25:10.348Z,6.00
2023-03-17T22:30:12.962Z,6.00
2023-03-17T22:35:16.687Z,6.00
2023-03-17T22:40:19.232Z,6.00
2023-03-17T22:45:22.245Z,6.00
2023-03-17T22:50:24.982Z,5.90
2023-03-17T22:55:27.513Z,5.80
2023-03-17T23:00:32.277Z,5.80
2023-03-17T23:05:34.862Z,5.80
2023-03-17T23:10:39.094Z,5.70
2023-03-17T23:15:41.656Z,5.60
2023-03-17T23:20:44.308Z,5.60
2023-03-17T23:25:46.999Z,5.50
2023-03-17T23:30:49.464Z,5.50
2023-03-17T23:35:52.390Z,5.50
2023-03-17T23:40:57.123Z,5.50
2023-03-17T23:46:00.523Z,5.50
2023-03-17T23:51:03.319Z,5.50
2023-03-17T23:56:07.982Z,5.50
